Alexandria, Pennsylvania
Current Conditions -  °F | °C
As of 10:53 AM on Monday 24 Nov 2014 (Local Time) from KAOO Reporting Station
Clear Clear  
Wind Chill: 62°   Ceiling: Unl
Heat Index: 62°   Visibility: 10mi
Dew Point: 53°   Wind: 18mph
Humidity: 72%   Direction: 180°S
Pressure: 29.54"   Gusts: 26mph
Location:  40.56°N, 78.1°W
Report Text: KAOO 241553Z AUTO 18016G23KT 10SM CLR 17/12 A2954 RMK AO2 PK WND 17029/1534 SLP002 T01670117
Loading
Personal Weather Stations






























Interactive Weather Map New forecast layout! Learn more

10-Day Weather Forecast

Advertisements
Track Severe Weather on mobile